sensor_id;sensor_type;location;lat;lon;timestamp;P1;durP1;ratioP1;P2;durP2;ratioP2
10260;SDS011;5175;42.606;23.388;2023-03-01T00:02:20;7.30;;;6.60;;
10260;SDS011;5175;42.606;23.388;2023-03-01T00:04:48;8.00;;;7.30;;
10260;SDS011;5175;42.606;23.388;2023-03-01T00:07:14;9.10;;;8.20;;
10260;SDS011;5175;42.606;23.388;2023-03-01T00:09:41;9.73;;;8.83;;
10260;SDS011;5175;42.606;23.388;2023-03-01T00:12:11;10.23;;;9.23;;
10260;SDS011;5175;42.606;23.388;2023-03-01T00:14:39;11.23;;;10.13;;
10260;SDS011;5175;42.606;23.388;2023-03-01T00:17:06;11.10;;;10.10;;
10260;SDS011;5175;42.606;23.388;2023-03-01T00:19:33;11.63;;;10.53;;
10260;SDS011;5175;42.606;23.388;2023-03-01T00:22:00;10.87;;;9.87;;
10260;SDS011;5175;42.606;23.388;2023-03-01T00:24:26;11.13;;;10.07;;
10260;SDS011;5175;42.606;23.388;2023-03-01T00:26:53;9.60;;;8.70;;
10260;SDS011;5175;42.606;23.388;2023-03-01T00:29:21;6.90;;;6.30;;
10260;SDS011;5175;42.606;23.388;2023-03-01T00:31:50;7.33;;;6.63;;
10260;SDS011;5175;42.606;23.388;2023-03-01T00:34:17;5.93;;;5.43;;
10260;SDS011;5175;42.606;23.388;2023-03-01T00:36:44;2.30;;;2.10;;
10260;SDS011;5175;42.606;23.388;2023-03-01T00:39:12;1.90;;;1.80;;
10260;SDS011;5175;42.606;23.388;2023-03-01T00:41:39;1.50;;;1.40;;
10260;SDS011;5175;42.606;23.388;2023-03-01T00:44:06;1.67;;;1.50;;
10260;SDS011;5175;42.606;23.388;2023-03-01T00:46:33;3.27;;;2.27;;
10260;SDS011;5175;42.606;23.388;2023-03-01T00:49:02;1.43;;;1.27;;
10260;SDS011;5175;42.606;23.388;2023-03-01T00:51:29;1.77;;;1.40;;
10260;SDS011;5175;42.606;23.388;2023-03-01T00:53:57;1.30;;;1.20;;
10260;SDS011;5175;42.606;23.388;2023-03-01T00:56:26;1.37;;;1.20;;
10260;SDS011;5175;42.606;23.388;2023-03-01T00:58:53;1.53;;;1.30;;
10260;SDS011;5175;42.606;23.388;2023-03-01T01:01:21;1.20;;;1.10;;
10260;SDS011;5175;42.606;23.388;2023-03-01T01:03:51;1.23;;;1.13;;
10260;SDS011;5175;42.606;23.388;2023-03-01T01:06:21;1.20;;;1.10;;
10260;SDS011;5175;42.606;23.388;2023-03-01T01:08:50;1.00;;;1.00;;
10260;SDS011;5175;42.606;23.388;2023-03-01T01:11:18;0.90;;;0.90;;
10260;SDS011;5175;42.606;23.388;2023-03-01T01:13:46;0.97;;;0.97;;
10260;SDS011;5175;42.606;23.388;2023-03-01T01:16:13;1.20;;;1.10;;
10260;SDS011;5175;42.606;23.388;2023-03-01T01:18:41;1.13;;;1.10;;
10260;SDS011;5175;42.606;23.388;2023-03-01T01:21:09;0.90;;;0.90;;
10260;SDS011;5175;42.606;23.388;2023-03-01T01:23:39;1.87;;;1.70;;
10260;SDS011;5175;42.606;23.388;2023-03-01T01:26:07;1.47;;;1.37;;
10260;SDS011;5175;42.606;23.388;2023-03-01T01:28:36;1.60;;;1.50;;
10260;SDS011;5175;42.606;23.388;2023-03-01T01:31:03;1.50;;;1.40;;
10260;SDS011;5175;42.606;23.388;2023-03-01T01:33:30;0.90;;;0.90;;
10260;SDS011;5175;42.606;23.388;2023-03-01T01:35:57;1.00;;;1.00;;
10260;SDS011;5175;42.606;23.388;2023-03-01T01:38:27;1.03;;;0.83;;
10260;SDS011;5175;42.606;23.388;2023-03-01T01:40:55;1.30;;;1.20;;
10260;SDS011;5175;42.606;23.388;2023-03-01T01:43:23;0.90;;;0.90;;
10260;SDS011;5175;42.606;23.388;2023-03-01T01:45:52;0.90;;;0.90;;
10260;SDS011;5175;42.606;23.388;2023-03-01T01:48:22;1.30;;;1.20;;
10260;SDS011;5175;42.606;23.388;2023-03-01T01:51:05;1.47;;;1.37;;
10260;SDS011;5175;42.606;23.388;2023-03-01T01:53:37;1.00;;;1.00;;
10260;SDS011;5175;42.606;23.388;2023-03-01T01:56:07;1.27;;;1.17;;
10260;SDS011;5175;42.606;23.388;2023-03-01T01:58:38;2.37;;;2.17;;
10260;SDS011;5175;42.606;23.388;2023-03-01T02:01:06;2.60;;;2.40;;
10260;SDS011;5175;42.606;23.388;2023-03-01T02:03:34;2.53;;;2.33;;
10260;SDS011;5175;42.606;23.388;2023-03-01T02:06:08;1.70;;;1.60;;
10260;SDS011;5175;42.606;23.388;2023-03-01T02:08:40;1.60;;;1.50;;
10260;SDS011;5175;42.606;23.388;2023-03-01T02:11:10;1.90;;;1.80;;
10260;SDS011;5175;42.606;23.388;2023-03-01T02:13:40;1.83;;;1.73;;
10260;SDS011;5175;42.606;23.388;2023-03-01T02:16:09;2.03;;;1.93;;
10260;SDS011;5175;42.606;23.388;2023-03-01T02:18:37;2.20;;;2.10;;
10260;SDS011;5175;42.606;23.388;2023-03-01T02:21:08;1.90;;;1.80;;
10260;SDS011;5175;42.606;23.388;2023-03-01T02:23:52;2.20;;;2.00;;
10260;SDS011;5175;42.606;23.388;2023-03-01T02:26:23;3.53;;;3.23;;
10260;SDS011;5175;42.606;23.388;2023-03-01T02:28:58;2.30;;;2.10;;
10260;SDS011;5175;42.606;23.388;2023-03-01T02:31:25;2.63;;;2.43;;
10260;SDS011;5175;42.606;23.388;2023-03-01T02:34:09;2.47;;;2.27;;
10260;SDS011;5175;42.606;23.388;2023-03-01T02:36:39;2.63;;;2.43;;
10260;SDS011;5175;42.606;23.388;2023-03-01T02:39:10;3.63;;;2.70;;
10260;SDS011;5175;42.606;23.388;2023-03-01T02:41:43;2.77;;;2.57;;
10260;SDS011;5175;42.606;23.388;2023-03-01T02:44:14;2.97;;;2.67;;
10260;SDS011;5175;42.606;23.388;2023-03-01T02:46:42;3.33;;;3.03;;
10260;SDS011;5175;42.606;23.388;2023-03-01T02:49:18;2.90;;;2.70;;
10260;SDS011;5175;42.606;23.388;2023-03-01T02:51:50;2.90;;;2.70;;
10260;SDS011;5175;42.606;23.388;2023-03-01T02:54:27;3.30;;;2.90;;
10260;SDS011;5175;42.606;23.388;2023-03-01T02:56:57;3.10;;;2.80;;
10260;SDS011;5175;42.606;23.388;2023-03-01T02:59:26;3.87;;;3.37;;
10260;SDS011;5175;42.606;23.388;2023-03-01T03:01:57;3.57;;;3.27;;
10260;SDS011;5175;42.606;23.388;2023-03-01T03:04:24;3.50;;;3.20;;
10260;SDS011;5175;42.606;23.388;2023-03-01T03:06:50;3.70;;;3.20;;
10260;SDS011;5175;42.606;23.388;2023-03-01T03:09:17;3.03;;;2.83;;
10260;SDS011;5175;42.606;23.388;2023-03-01T03:11:45;3.30;;;3.00;;
10260;SDS011;5175;42.606;23.388;2023-03-01T03:14:13;3.47;;;3.17;;
10260;SDS011;5175;42.606;23.388;2023-03-01T03:16:42;3.50;;;3.20;;
10260;SDS011;5175;42.606;23.388;2023-03-01T03:19:11;3.47;;;3.13;;
10260;SDS011;5175;42.606;23.388;2023-03-01T03:21:38;3.67;;;3.37;;
10260;SDS011;5175;42.606;23.388;2023-03-01T03:24:05;3.53;;;3.23;;
10260;SDS011;5175;42.606;23.388;2023-03-01T03:26:32;3.33;;;2.93;;
10260;SDS011;5175;42.606;23.388;2023-03-01T03:28:59;3.33;;;3.03;;
10260;SDS011;5175;42.606;23.388;2023-03-01T03:31:26;3.50;;;3.20;;
10260;SDS011;5175;42.606;23.388;2023-03-01T03:33:54;4.00;;;3.23;;
10260;SDS011;5175;42.606;23.388;2023-03-01T03:36:22;4.93;;;3.47;;
10260;SDS011;5175;42.606;23.388;2023-03-01T03:38:50;4.00;;;3.60;;
10260;SDS011;5175;42.606;23.388;2023-03-01T03:41:17;3.90;;;3.60;;
10260;SDS011;5175;42.606;23.388;2023-03-01T03:43:44;6.17;;;3.33;;
10260;SDS011;5175;42.606;23.388;2023-03-01T03:46:11;3.33;;;3.03;;
10260;SDS011;5175;42.606;23.388;2023-03-01T03:48:39;3.40;;;3.10;;
10260;SDS011;5175;42.606;23.388;2023-03-01T03:51:11;3.97;;;3.30;;
10260;SDS011;5175;42.606;23.388;2023-03-01T03:53:38;3.60;;;3.30;;
10260;SDS011;5175;42.606;23.388;2023-03-01T03:56:05;4.10;;;3.70;;
10260;SDS011;5175;42.606;23.388;2023-03-01T03:58:33;3.80;;;3.50;;
10260;SDS011;5175;42.606;23.388;2023-03-01T04:00:59;4.10;;;3.63;;
10260;SDS011;5175;42.606;23.388;2023-03-01T04:03:27;3.80;;;3.50;;
10260;SDS011;5175;42.606;23.388;2023-03-01T04:05:57;4.37;;;3.83;;
10260;SDS011;5175;42.606;23.388;2023-03-01T04:08:25;4.03;;;3.70;;
10260;SDS011;5175;42.606;23.388;2023-03-01T04:10:57;3.77;;;3.43;;
10260;SDS011;5175;42.606;23.388;2023-03-01T04:13:25;3.73;;;3.17;;
10260;SDS011;5175;42.606;23.388;2023-03-01T04:15:52;3.27;;;2.97;;
10260;SDS011;5175;42.606;23.388;2023-03-01T04:18:21;4.80;;;3.70;;
10260;SDS011;5175;42.606;23.388;2023-03-01T04:20:49;3.97;;;3.57;;
10260;SDS011;5175;42.606;23.388;2023-03-01T04:23:20;3.63;;;3.27;;
10260;SDS011;5175;42.606;23.388;2023-03-01T04:25:50;4.20;;;3.80;;
10260;SDS011;5175;42.606;23.388;2023-03-01T04:28:20;4.27;;;3.70;;
10260;SDS011;5175;42.606;23.388;2023-03-01T04:30:49;4.87;;;3.73;;
10260;SDS011;5175;42.606;23.388;2023-03-01T04:33:17;4.70;;;3.77;;
10260;SDS011;5175;42.606;23.388;2023-03-01T04:35:44;4.40;;;4.00;;
10260;SDS011;5175;42.606;23.388;2023-03-01T04:38:14;4.40;;;4.00;;
10260;SDS011;5175;42.606;23.388;2023-03-01T04:40:41;4.50;;;4.03;;
10260;SDS011;5175;42.606;23.388;2023-03-01T04:43:10;5.23;;;3.97;;
10260;SDS011;5175;42.606;23.388;2023-03-01T04:45:39;4.10;;;3.70;;
10260;SDS011;5175;42.606;23.388;2023-03-01T04:48:06;5.07;;;4.57;;
10260;SDS011;5175;42.606;23.388;2023-03-01T04:50:33;4.20;;;3.80;;
10260;SDS011;5175;42.606;23.388;2023-03-01T04:53:00;4.30;;;3.90;;
10260;SDS011;5175;42.606;23.388;2023-03-01T04:55:27;4.20;;;3.77;;
10260;SDS011;5175;42.606;23.388;2023-03-01T04:57:55;4.37;;;3.97;;
10260;SDS011;5175;42.606;23.388;2023-03-01T05:00:23;4.53;;;4.07;;
10260;SDS011;5175;42.606;23.388;2023-03-01T05:02:51;4.37;;;3.47;;
10260;SDS011;5175;42.606;23.388;2023-03-01T05:05:20;3.40;;;3.10;;
10260;SDS011;5175;42.606;23.388;2023-03-01T05:07:51;3.87;;;3.57;;
10260;SDS011;5175;42.606;23.388;2023-03-01T05:10:19;3.90;;;3.50;;
10260;SDS011;5175;42.606;23.388;2023-03-01T05:12:46;4.07;;;3.50;;
10260;SDS011;5175;42.606;23.388;2023-03-01T05:15:13;4.03;;;3.00;;
10260;SDS011;5175;42.606;23.388;2023-03-01T05:17:41;3.40;;;3.10;;
10260;SDS011;5175;42.606;23.388;2023-03-01T05:20:09;3.67;;;3.13;;
10260;SDS011;5175;42.606;23.388;2023-03-01T05:22:36;3.60;;;3.23;;
10260;SDS011;5175;42.606;23.388;2023-03-01T05:25:04;3.60;;;2.93;;
10260;SDS011;5175;42.606;23.388;2023-03-01T05:27:32;3.07;;;2.80;;
10260;SDS011;5175;42.606;23.388;2023-03-01T05:29:59;3.67;;;2.90;;
10260;SDS011;5175;42.606;23.388;2023-03-01T05:32:39;3.30;;;3.00;;
10260;SDS011;5175;42.606;23.388;2023-03-01T05:35:10;2.83;;;2.63;;
10260;SDS011;5175;42.606;23.388;2023-03-01T05:37:40;4.30;;;3.90;;
10260;SDS011;5175;42.606;23.388;2023-03-01T05:40:08;4.93;;;4.07;;
10260;SDS011;5175;42.606;23.388;2023-03-01T05:42:41;3.43;;;3.10;;
10260;SDS011;5175;42.606;23.388;2023-03-01T05:45:09;3.20;;;2.90;;
10260;SDS011;5175;42.606;23.388;2023-03-01T05:47:37;3.17;;;2.60;;
10260;SDS011;5175;42.606;23.388;2023-03-01T05:50:10;3.07;;;2.80;;
10260;SDS011;5175;42.606;23.388;2023-03-01T05:52:39;3.30;;;2.83;;
10260;SDS011;5175;42.606;23.388;2023-03-01T05:55:06;2.60;;;2.17;;
10260;SDS011;5175;42.606;23.388;2023-03-01T05:57:33;3.07;;;2.77;;
10260;SDS011;5175;42.606;23.388;2023-03-01T06:00:00;3.20;;;2.50;;
10260;SDS011;5175;42.606;23.388;2023-03-01T06:02:26;3.60;;;2.60;;
10260;SDS011;5175;42.606;23.388;2023-03-01T06:04:54;4.33;;;2.63;;
10260;SDS011;5175;42.606;23.388;2023-03-01T06:07:22;2.57;;;2.37;;
10260;SDS011;5175;42.606;23.388;2023-03-01T06:09:49;2.33;;;2.13;;
10260;SDS011;5175;42.606;23.388;2023-03-01T06:12:16;2.33;;;2.13;;
10260;SDS011;5175;42.606;23.388;2023-03-01T06:14:43;2.83;;;2.40;;
10260;SDS011;5175;42.606;23.388;2023-03-01T06:17:12;2.60;;;2.30;;
10260;SDS011;5175;42.606;23.388;2023-03-01T06:19:39;2.70;;;2.50;;
10260;SDS011;5175;42.606;23.388;2023-03-01T06:22:05;2.07;;;1.90;;
10260;SDS011;5175;42.606;23.388;2023-03-01T06:24:34;2.40;;;2.20;;
10260;SDS011;5175;42.606;23.388;2023-03-01T06:27:02;3.20;;;2.70;;
10260;SDS011;5175;42.606;23.388;2023-03-01T06:29:29;3.70;;;3.10;;
10260;SDS011;5175;42.606;23.388;2023-03-01T06:31:56;4.40;;;3.30;;
10260;SDS011;5175;42.606;23.388;2023-03-01T06:34:22;3.80;;;2.77;;
10260;SDS011;5175;42.606;23.388;2023-03-01T06:36:49;3.73;;;3.20;;
10260;SDS011;5175;42.606;23.388;2023-03-01T06:39:16;3.40;;;2.47;;
10260;SDS011;5175;42.606;23.388;2023-03-01T06:41:44;2.50;;;2.30;;
10260;SDS011;5175;42.606;23.388;2023-03-01T06:44:11;2.97;;;2.30;;
10260;SDS011;5175;42.606;23.388;2023-03-01T06:46:38;3.30;;;2.40;;
10260;SDS011;5175;42.606;23.388;2023-03-01T06:49:05;2.10;;;1.90;;
10260;SDS011;5175;42.606;23.388;2023-03-01T06:51:34;2.00;;;1.80;;
10260;SDS011;5175;42.606;23.388;2023-03-01T06:54:02;1.80;;;1.70;;
10260;SDS011;5175;42.606;23.388;2023-03-01T06:56:29;1.80;;;1.60;;
10260;SDS011;5175;42.606;23.388;2023-03-01T06:58:57;1.67;;;1.57;;
10260;SDS011;5175;42.606;23.388;2023-03-01T07:01:24;1.87;;;1.77;;
10260;SDS011;5175;42.606;23.388;2023-03-01T07:03:51;2.73;;;2.53;;
10260;SDS011;5175;42.606;23.388;2023-03-01T07:06:18;1.70;;;1.60;;
10260;SDS011;5175;42.606;23.388;2023-03-01T07:08:44;1.70;;;1.60;;
10260;SDS011;5175;42.606;23.388;2023-03-01T07:11:11;1.80;;;1.70;;
10260;SDS011;5175;42.606;23.388;2023-03-01T07:13:38;2.20;;;1.77;;
10260;SDS011;5175;42.606;23.388;2023-03-01T07:16:07;2.50;;;2.30;;
10260;SDS011;5175;42.606;23.388;2023-03-01T07:18:34;2.23;;;2.03;;
10260;SDS011;5175;42.606;23.388;2023-03-01T07:21:03;2.20;;;1.90;;
10260;SDS011;5175;42.606;23.388;2023-03-01T07:23:31;2.10;;;1.90;;
10260;SDS011;5175;42.606;23.388;2023-03-01T07:25:58;2.73;;;2.53;;
10260;SDS011;5175;42.606;23.388;2023-03-01T07:28:25;2.57;;;2.10;;
10260;SDS011;5175;42.606;23.388;2023-03-01T07:30:52;2.33;;;1.90;;
10260;SDS011;5175;42.606;23.388;2023-03-01T07:33:21;2.60;;;2.40;;
10260;SDS011;5175;42.606;23.388;2023-03-01T07:35:48;2.40;;;2.20;;
10260;SDS011;5175;42.606;23.388;2023-03-01T07:38:21;2.50;;;2.30;;
10260;SDS011;5175;42.606;23.388;2023-03-01T07:40:48;3.23;;;2.60;;
10260;SDS011;5175;42.606;23.388;2023-03-01T07:43:14;3.10;;;2.70;;
10260;SDS011;5175;42.606;23.388;2023-03-01T07:45:41;3.37;;;2.67;;
10260;SDS011;5175;42.606;23.388;2023-03-01T07:48:08;2.80;;;2.60;;
10260;SDS011;5175;42.606;23.388;2023-03-01T07:50:36;3.57;;;3.27;;
10260;SDS011;5175;42.606;23.388;2023-03-01T07:53:03;3.70;;;2.40;;
10260;SDS011;5175;42.606;23.388;2023-03-01T07:55:30;3.00;;;2.70;;
10260;SDS011;5175;42.606;23.388;2023-03-01T07:57:57;2.87;;;2.60;;
10260;SDS011;5175;42.606;23.388;2023-03-01T08:00:23;3.50;;;2.70;;
10260;SDS011;5175;42.606;23.388;2023-03-01T08:02:50;3.07;;;2.57;;
10260;SDS011;5175;42.606;23.388;2023-03-01T08:05:18;4.70;;;2.97;;
10260;SDS011;5175;42.606;23.388;2023-03-01T08:07:48;3.23;;;2.93;;
10260;SDS011;5175;42.606;23.388;2023-03-01T08:10:15;3.23;;;2.93;;
10260;SDS011;5175;42.606;23.388;2023-03-01T08:12:42;3.10;;;2.80;;
10260;SDS011;5175;42.606;23.388;2023-03-01T08:15:10;3.17;;;2.97;;
10260;SDS011;5175;42.606;23.388;2023-03-01T08:17:37;3.20;;;2.90;;
10260;SDS011;5175;42.606;23.388;2023-03-01T08:20:04;3.13;;;2.83;;
10260;SDS011;5175;42.606;23.388;2023-03-01T08:22:32;3.10;;;2.80;;
10260;SDS011;5175;42.606;23.388;2023-03-01T08:25:01;3.00;;;2.80;;
10260;SDS011;5175;42.606;23.388;2023-03-01T08:27:27;2.77;;;2.57;;
10260;SDS011;5175;42.606;23.388;2023-03-01T08:29:54;3.20;;;2.97;;
10260;SDS011;5175;42.606;23.388;2023-03-01T08:32:21;3.40;;;3.10;;
10260;SDS011;5175;42.606;23.388;2023-03-01T08:34:48;3.03;;;2.80;;
10260;SDS011;5175;42.606;23.388;2023-03-01T08:37:15;3.03;;;2.73;;
10260;SDS011;5175;42.606;23.388;2023-03-01T08:39:41;3.30;;;2.90;;
10260;SDS011;5175;42.606;23.388;2023-03-01T08:42:10;3.27;;;3.00;;
10260;SDS011;5175;42.606;23.388;2023-03-01T08:44:36;2.60;;;2.40;;
10260;SDS011;5175;42.606;23.388;2023-03-01T08:47:03;2.93;;;2.73;;
10260;SDS011;5175;42.606;23.388;2023-03-01T08:49:30;3.13;;;2.83;;
10260;SDS011;5175;42.606;23.388;2023-03-01T08:51:58;3.13;;;2.50;;
10260;SDS011;5175;42.606;23.388;2023-03-01T08:54:26;3.73;;;2.53;;
10260;SDS011;5175;42.606;23.388;2023-03-01T08:56:53;3.63;;;3.20;;
10260;SDS011;5175;42.606;23.388;2023-03-01T08:59:22;2.80;;;2.60;;
10260;SDS011;5175;42.606;23.388;2023-03-01T09:01:48;3.07;;;2.63;;
10260;SDS011;5175;42.606;23.388;2023-03-01T09:04:15;2.73;;;2.53;;
10260;SDS011;5175;42.606;23.388;2023-03-01T09:06:42;2.67;;;2.47;;
10260;SDS011;5175;42.606;23.388;2023-03-01T09:09:10;2.50;;;2.30;;
10260;SDS011;5175;42.606;23.388;2023-03-01T09:11:41;2.80;;;2.60;;
10260;SDS011;5175;42.606;23.388;2023-03-01T09:14:08;2.77;;;2.57;;
10260;SDS011;5175;42.606;23.388;2023-03-01T09:16:36;2.50;;;2.30;;
10260;SDS011;5175;42.606;23.388;2023-03-01T09:19:04;2.73;;;2.50;;
10260;SDS011;5175;42.606;23.388;2023-03-01T09:21:31;2.43;;;2.23;;
10260;SDS011;5175;42.606;23.388;2023-03-01T09:23:58;2.77;;;2.57;;
10260;SDS011;5175;42.606;23.388;2023-03-01T09:26:25;2.70;;;2.50;;
10260;SDS011;5175;42.606;23.388;2023-03-01T09:28:52;3.17;;;2.83;;
10260;SDS011;5175;42.606;23.388;2023-03-01T09:31:21;2.77;;;2.57;;
10260;SDS011;5175;42.606;23.388;2023-03-01T09:33:52;3.30;;;3.00;;
10260;SDS011;5175;42.606;23.388;2023-03-01T09:36:20;3.07;;;2.77;;
10260;SDS011;5175;42.606;23.388;2023-03-01T09:38:48;2.93;;;2.70;;
10260;SDS011;5175;42.606;23.388;2023-03-01T09:41:30;3.00;;;2.70;;
10260;SDS011;5175;42.606;23.388;2023-03-01T09:44:05;3.13;;;2.83;;
10260;SDS011;5175;42.606;23.388;2023-03-01T09:46:42;3.50;;;3.00;;
10260;SDS011;5175;42.606;23.388;2023-03-01T09:49:14;2.70;;;2.50;;
10260;SDS011;5175;42.606;23.388;2023-03-01T09:51:43;3.07;;;2.80;;
10260;SDS011;5175;42.606;23.388;2023-03-01T09:54:21;3.67;;;2.77;;
10260;SDS011;5175;42.606;23.388;2023-03-01T09:56:53;4.40;;;3.07;;
10260;SDS011;5175;42.606;23.388;2023-03-01T09:59:31;3.00;;;2.70;;
10260;SDS011;5175;42.606;23.388;2023-03-01T10:02:11;2.90;;;2.70;;
10260;SDS011;5175;42.606;23.388;2023-03-01T10:04:51;3.47;;;2.70;;
10260;SDS011;5175;42.606;23.388;2023-03-01T10:07:24;3.10;;;2.90;;
10260;SDS011;5175;42.606;23.388;2023-03-01T10:09:56;3.37;;;3.07;;
10260;SDS011;5175;42.606;23.388;2023-03-01T10:12:26;3.60;;;3.30;;
10260;SDS011;5175;42.606;23.388;2023-03-01T10:15:00;3.40;;;3.10;;
10260;SDS011;5175;42.606;23.388;2023-03-01T10:17:33;3.40;;;3.10;;
10260;SDS011;5175;42.606;23.388;2023-03-01T10:20:17;3.90;;;3.60;;
10260;SDS011;5175;42.606;23.388;2023-03-01T10:22:46;5.77;;;5.13;;
10260;SDS011;5175;42.606;23.388;2023-03-01T10:25:17;3.90;;;3.60;;
10260;SDS011;5175;42.606;23.388;2023-03-01T10:27:59;3.93;;;3.63;;
10260;SDS011;5175;42.606;23.388;2023-03-01T10:30:32;3.77;;;3.43;;
10260;SDS011;5175;42.606;23.388;2023-03-01T10:33:03;3.30;;;3.00;;
10260;SDS011;5175;42.606;23.388;2023-03-01T10:35:41;3.50;;;3.20;;
10260;SDS011;5175;42.606;23.388;2023-03-01T10:38:08;3.57;;;3.10;;
10260;SDS011;5175;42.606;23.388;2023-03-01T10:40:36;4.80;;;3.73;;
10260;SDS011;5175;42.606;23.388;2023-03-01T10:43:19;4.10;;;3.70;;
10260;SDS011;5175;42.606;23.388;2023-03-01T10:45:47;3.63;;;3.33;;
10260;SDS011;5175;42.606;23.388;2023-03-01T10:48:15;4.07;;;3.77;;
10260;SDS011;5175;42.606;23.388;2023-03-01T10:50:48;4.00;;;3.50;;
10260;SDS011;5175;42.606;23.388;2023-03-01T10:53:23;3.73;;;3.43;;
10260;SDS011;5175;42.606;23.388;2023-03-01T10:55:58;5.27;;;3.77;;
10260;SDS011;5175;42.606;23.388;2023-03-01T10:58:27;4.20;;;3.80;;
10260;SDS011;5175;42.606;23.388;2023-03-01T11:00:56;4.30;;;3.90;;
10260;SDS011;5175;42.606;23.388;2023-03-01T11:03:24;3.73;;;3.40;;
10260;SDS011;5175;42.606;23.388;2023-03-01T11:08:48;3.33;;;3.03;;
10260;SDS011;5175;42.606;23.388;2023-03-01T11:11:23;4.23;;;3.93;;
10260;SDS011;5175;42.606;23.388;2023-03-01T11:13:57;3.70;;;3.40;;
10260;SDS011;5175;42.606;23.388;2023-03-01T11:16:29;3.80;;;3.50;;
10260;SDS011;5175;42.606;23.388;2023-03-01T11:19:00;4.50;;;3.90;;
10260;SDS011;5175;42.606;23.388;2023-03-01T11:21:41;3.87;;;3.57;;
10260;SDS011;5175;42.606;23.388;2023-03-01T11:24:14;4.70;;;3.60;;
10260;SDS011;5175;42.606;23.388;2023-03-01T11:26:44;3.97;;;3.60;;
10260;SDS011;5175;42.606;23.388;2023-03-01T11:29:18;4.30;;;3.90;;
10260;SDS011;5175;42.606;23.388;2023-03-01T11:31:53;8.63;;;7.77;;
10260;SDS011;5175;42.606;23.388;2023-03-01T11:34:23;4.27;;;3.73;;
10260;SDS011;5175;42.606;23.388;2023-03-01T11:37:18;4.30;;;4.00;;
10260;SDS011;5175;42.606;23.388;2023-03-01T11:39:52;4.13;;;3.83;;
10260;SDS011;5175;42.606;23.388;2023-03-01T11:42:27;4.10;;;3.73;;
10260;SDS011;5175;42.606;23.388;2023-03-01T11:45:03;4.40;;;4.00;;
10260;SDS011;5175;42.606;23.388;2023-03-01T11:47:46;4.40;;;4.00;;
10260;SDS011;5175;42.606;23.388;2023-03-01T11:50:26;4.70;;;3.80;;
10260;SDS011;5175;42.606;23.388;2023-03-01T11:55:57;4.17;;;3.77;;
10260;SDS011;5175;42.606;23.388;2023-03-01T11:58:41;4.10;;;3.70;;
10260;SDS011;5175;42.606;23.388;2023-03-01T12:01:24;4.87;;;4.33;;
10260;SDS011;5175;42.606;23.388;2023-03-01T12:04:23;4.13;;;3.73;;
10260;SDS011;5175;42.606;23.388;2023-03-01T12:07:01;4.10;;;3.70;;
10260;SDS011;5175;42.606;23.388;2023-03-01T12:09:47;4.30;;;3.90;;
10260;SDS011;5175;42.606;23.388;2023-03-01T12:12:30;4.30;;;3.90;;
10260;SDS011;5175;42.606;23.388;2023-03-01T12:15:07;4.53;;;4.00;;
10260;SDS011;5175;42.606;23.388;2023-03-01T12:18:05;3.83;;;3.53;;
10260;SDS011;5175;42.606;23.388;2023-03-01T12:20:40;4.47;;;4.07;;
10260;SDS011;5175;42.606;23.388;2023-03-01T12:23:22;4.50;;;3.97;;
10260;SDS011;5175;42.606;23.388;2023-03-01T12:26:12;3.90;;;3.53;;
10260;SDS011;5175;42.606;23.388;2023-03-01T12:28:57;3.90;;;3.60;;
10260;SDS011;5175;42.606;23.388;2023-03-01T12:31:44;3.90;;;3.60;;
10260;SDS011;5175;42.606;23.388;2023-03-01T12:34:25;4.40;;;3.70;;
10260;SDS011;5175;42.606;23.388;2023-03-01T12:37:12;3.90;;;3.60;;
10260;SDS011;5175;42.606;23.388;2023-03-01T12:39:50;3.63;;;3.33;;
10260;SDS011;5175;42.606;23.388;2023-03-01T12:42:30;3.90;;;3.60;;
10260;SDS011;5175;42.606;23.388;2023-03-01T12:45:18;4.90;;;3.90;;
10260;SDS011;5175;42.606;23.388;2023-03-01T12:48:02;4.10;;;3.80;;
10260;SDS011;5175;42.606;23.388;2023-03-01T12:50:38;4.10;;;3.70;;
10260;SDS011;5175;42.606;23.388;2023-03-01T12:53:14;3.70;;;3.40;;
10260;SDS011;5175;42.606;23.388;2023-03-01T12:55:49;3.73;;;3.43;;
10260;SDS011;5175;42.606;23.388;2023-03-01T12:58:23;3.53;;;3.23;;
10260;SDS011;5175;42.606;23.388;2023-03-01T13:01:00;3.60;;;3.30;;
10260;SDS011;5175;42.606;23.388;2023-03-01T13:03:52;4.00;;;3.70;;
10260;SDS011;5175;42.606;23.388;2023-03-01T13:06:32;4.00;;;3.60;;
10260;SDS011;5175;42.606;23.388;2023-03-01T13:09:07;3.93;;;3.63;;
10260;SDS011;5175;42.606;23.388;2023-03-01T13:11:41;4.20;;;3.90;;
10260;SDS011;5175;42.606;23.388;2023-03-01T13:14:36;4.13;;;3.80;;
10260;SDS011;5175;42.606;23.388;2023-03-01T13:19:59;5.77;;;4.73;;
10260;SDS011;5175;42.606;23.388;2023-03-01T13:22:26;3.97;;;3.67;;
10260;SDS011;5175;42.606;23.388;2023-03-01T13:25:13;4.40;;;4.00;;
10260;SDS011;5175;42.606;23.388;2023-03-01T13:27:43;4.03;;;3.63;;
10260;SDS011;5175;42.606;23.388;2023-03-01T13:36:09;4.43;;;3.70;;
10260;SDS011;5175;42.606;23.388;2023-03-01T13:38:46;4.33;;;3.93;;
10260;SDS011;5175;42.606;23.388;2023-03-01T13:41:14;4.83;;;4.33;;
10260;SDS011;5175;42.606;23.388;2023-03-01T13:43:43;4.67;;;3.90;;
10260;SDS011;5175;42.606;23.388;2023-03-01T13:46:16;4.27;;;3.87;;
10260;SDS011;5175;42.606;23.388;2023-03-01T13:48:47;4.20;;;3.80;;
10260;SDS011;5175;42.606;23.388;2023-03-01T13:51:20;6.10;;;4.40;;
10260;SDS011;5175;42.606;23.388;2023-03-01T13:53:49;4.37;;;3.93;;
10260;SDS011;5175;42.606;23.388;2023-03-01T13:56:17;4.47;;;3.50;;
10260;SDS011;5175;42.606;23.388;2023-03-01T13:58:50;4.03;;;3.63;;
10260;SDS011;5175;42.606;23.388;2023-03-01T14:01:23;3.53;;;3.23;;
10260;SDS011;5175;42.606;23.388;2023-03-01T14:03:52;3.30;;;3.00;;
10260;SDS011;5175;42.606;23.388;2023-03-01T14:06:20;3.60;;;3.30;;
10260;SDS011;5175;42.606;23.388;2023-03-01T14:08:49;3.77;;;3.40;;
10260;SDS011;5175;42.606;23.388;2023-03-01T14:11:43;3.53;;;3.23;;
10260;SDS011;5175;42.606;23.388;2023-03-01T14:14:32;4.63;;;3.40;;
10260;SDS011;5175;42.606;23.388;2023-03-01T14:17:22;4.27;;;3.87;;
10260;SDS011;5175;42.606;23.388;2023-03-01T14:20:11;4.20;;;3.80;;
10260;SDS011;5175;42.606;23.388;2023-03-01T14:22:41;3.83;;;3.53;;
10260;SDS011;5175;42.606;23.388;2023-03-01T14:25:23;4.57;;;3.30;;
10260;SDS011;5175;42.606;23.388;2023-03-01T14:27:52;3.70;;;3.40;;
10260;SDS011;5175;42.606;23.388;2023-03-01T14:30:24;4.10;;;3.70;;
10260;SDS011;5175;42.606;23.388;2023-03-01T14:32:55;4.67;;;4.17;;
10260;SDS011;5175;42.606;23.388;2023-03-01T14:35:24;4.73;;;4.20;;
10260;SDS011;5175;42.606;23.388;2023-03-01T14:37:52;4.83;;;4.43;;
10260;SDS011;5175;42.606;23.388;2023-03-01T14:40:21;5.87;;;4.37;;
10260;SDS011;5175;42.606;23.388;2023-03-01T14:42:50;4.97;;;4.00;;
10260;SDS011;5175;42.606;23.388;2023-03-01T14:45:17;4.30;;;3.90;;
10260;SDS011;5175;42.606;23.388;2023-03-01T14:47:45;3.97;;;3.67;;
10260;SDS011;5175;42.606;23.388;2023-03-01T14:50:18;4.77;;;3.87;;
10260;SDS011;5175;42.606;23.388;2023-03-01T14:52:48;4.90;;;4.30;;
10260;SDS011;5175;42.606;23.388;2023-03-01T14:55:18;4.60;;;4.20;;
10260;SDS011;5175;42.606;23.388;2023-03-01T14:57:47;6.07;;;4.80;;
10260;SDS011;5175;42.606;23.388;2023-03-01T15:00:17;4.87;;;4.37;;
10260;SDS011;5175;42.606;23.388;2023-03-01T15:02:47;5.50;;;4.97;;
10260;SDS011;5175;42.606;23.388;2023-03-01T15:05:18;5.80;;;5.20;;
10260;SDS011;5175;42.606;23.388;2023-03-01T15:07:49;5.53;;;5.00;;
10260;SDS011;5175;42.606;23.388;2023-03-01T15:10:19;5.60;;;5.00;;
10260;SDS011;5175;42.606;23.388;2023-03-01T15:12:50;5.67;;;5.17;;
10260;SDS011;5175;42.606;23.388;2023-03-01T15:18:11;4.77;;;4.27;;
10260;SDS011;5175;42.606;23.388;2023-03-01T15:20:43;5.40;;;4.10;;
10260;SDS011;5175;42.606;23.388;2023-03-01T15:23:18;6.03;;;5.30;;
10260;SDS011;5175;42.606;23.388;2023-03-01T15:25:48;8.53;;;6.57;;
10260;SDS011;5175;42.606;23.388;2023-03-01T15:28:22;6.30;;;5.63;;